sensor_id;sensor_type;location;lat;lon;timestamp;pressure;altitude;pressure_sealevel;temperature;humidity
22605;BME280;11469;49.024;8.246;2023-05-07T00:01:03;100247.44;;;14.02;99.08
22605;BME280;11469;49.024;8.246;2023-05-07T00:03:31;100237.59;;;13.85;99.35
22605;BME280;11469;49.024;8.246;2023-05-07T00:05:56;100240.69;;;13.73;100.00
22605;BME280;11469;49.024;8.246;2023-05-07T00:08:22;100235.41;;;13.64;100.00
22605;BME280;11469;49.024;8.246;2023-05-07T00:10:47;100243.09;;;13.67;100.00
22605;BME280;11469;49.024;8.246;2023-05-07T00:13:12;100244.66;;;13.65;100.00
22605;BME280;11469;49.024;8.246;2023-05-07T00:15:38;100241.00;;;13.60;100.00
22605;BME280;11469;49.024;8.246;2023-05-07T00:18:03;100241.38;;;13.59;100.00
22605;BME280;11469;49.024;8.246;2023-05-07T00:20:29;100237.41;;;13.64;100.00
22605;BME280;11469;49.024;8.246;2023-05-07T00:22:54;100236.63;;;13.67;100.00
22605;BME280;11469;49.024;8.246;2023-05-07T00:25:20;100243.88;;;13.68;100.00
22605;BME280;11469;49.024;8.246;2023-05-07T00:27:45;100240.69;;;13.69;100.00
22605;BME280;11469;49.024;8.246;2023-05-07T00:30:11;100233.44;;;13.68;100.00
22605;BME280;11469;49.024;8.246;2023-05-07T00:32:37;100237.03;;;13.65;100.00
22605;BME280;11469;49.024;8.246;2023-05-07T00:35:03;100238.25;;;13.68;100.00
22605;BME280;11469;49.024;8.246;2023-05-07T00:37:29;100245.47;;;13.65;100.00
22605;BME280;11469;49.024;8.246;2023-05-07T00:39:55;100234.50;;;13.56;100.00
22605;BME280;11469;49.024;8.246;2023-05-07T00:42:20;100236.22;;;13.65;100.00
22605;BME280;11469;49.024;8.246;2023-05-07T00:44:46;100232.47;;;13.53;100.00
22605;BME280;11469;49.024;8.246;2023-05-07T00:47:11;100229.84;;;13.75;100.00
22605;BME280;11469;49.024;8.246;2023-05-07T00:49:39;100233.78;;;13.63;100.00
22605;BME280;11469;49.024;8.246;2023-05-07T00:52:07;100234.00;;;13.88;100.00
22605;BME280;11469;49.024;8.246;2023-05-07T00:54:34;100222.22;;;13.75;100.00
22605;BME280;11469;49.024;8.246;2023-05-07T00:56:59;100241.91;;;13.72;100.00
22605;BME280;11469;49.024;8.246;2023-05-07T00:59:25;100227.34;;;13.63;100.00
22605;BME280;11469;49.024;8.246;2023-05-07T01:01:51;100227.41;;;13.73;100.00
22605;BME280;11469;49.024;8.246;2023-05-07T01:04:17;100229.44;;;13.73;100.00
22605;BME280;11469;49.024;8.246;2023-05-07T01:06:44;100231.88;;;13.74;100.00
22605;BME280;11469;49.024;8.246;2023-05-07T01:09:10;100234.00;;;13.88;100.00
22605;BME280;11469;49.024;8.246;2023-05-07T01:11:36;100228.75;;;13.86;100.00
22605;BME280;11469;49.024;8.246;2023-05-07T01:14:01;100227.03;;;13.75;100.00
22605;BME280;11469;49.024;8.246;2023-05-07T01:16:27;100221.44;;;13.78;100.00
22605;BME280;11469;49.024;8.246;2023-05-07T01:18:52;100227.41;;;13.73;100.00
22605;BME280;11469;49.024;8.246;2023-05-07T01:21:18;100225.47;;;13.77;100.00
22605;BME280;11469;49.024;8.246;2023-05-07T01:23:47;100229.50;;;13.80;100.00
22605;BME280;11469;49.024;8.246;2023-05-07T01:26:12;100225.06;;;13.79;100.00
22605;BME280;11469;49.024;8.246;2023-05-07T01:28:37;100229.78;;;13.64;100.00
22605;BME280;11469;49.024;8.246;2023-05-07T01:31:03;100222.91;;;13.61;100.00
22605;BME280;11469;49.024;8.246;2023-05-07T01:33:33;100219.75;;;13.67;100.00
22605;BME280;11469;49.024;8.246;2023-05-07T01:36:00;100212.41;;;13.58;100.00
22605;BME280;11469;49.024;8.246;2023-05-07T01:38:28;100222.44;;;13.56;100.00
22605;BME280;11469;49.024;8.246;2023-05-07T01:40:53;100219.66;;;13.59;100.00
22605;BME280;11469;49.024;8.246;2023-05-07T01:43:19;100224.88;;;13.57;100.00
22605;BME280;11469;49.024;8.246;2023-05-07T01:45:45;100220.91;;;13.62;100.00
22605;BME280;11469;49.024;8.246;2023-05-07T01:48:11;100228.16;;;13.63;100.00
22605;BME280;11469;49.024;8.246;2023-05-07T01:50:38;100221.31;;;13.64;100.00
22605;BME280;11469;49.024;8.246;2023-05-07T01:53:03;100216.50;;;13.65;100.00
22605;BME280;11469;49.024;8.246;2023-05-07T01:55:29;100213.69;;;13.65;100.00
22605;BME280;11469;49.024;8.246;2023-05-07T01:57:54;100215.34;;;13.69;100.00
22605;BME280;11469;49.024;8.246;2023-05-07T02:00:20;100219.31;;;13.65;100.00
22605;BME280;11469;49.024;8.246;2023-05-07T02:02:45;100211.59;;;13.58;100.00
22605;BME280;11469;49.024;8.246;2023-05-07T02:05:11;100214.16;;;13.74;100.00
22605;BME280;11469;49.024;8.246;2023-05-07T02:07:36;100217.72;;;13.67;100.00
22605;BME280;11469;49.024;8.246;2023-05-07T02:10:02;100227.38;;;13.66;100.00
22605;BME280;11469;49.024;8.246;2023-05-07T02:12:28;100226.53;;;13.62;100.00
22605;BME280;11469;49.024;8.246;2023-05-07T02:14:53;100228.03;;;13.52;100.00
22605;BME280;11469;49.024;8.246;2023-05-07T02:17:19;100223.94;;;13.46;100.00
22605;BME280;11469;49.024;8.246;2023-05-07T02:19:44;100231.69;;;13.56;100.00
22605;BME280;11469;49.024;8.246;2023-05-07T02:22:10;100227.25;;;13.55;100.00
22605;BME280;11469;49.024;8.246;2023-05-07T02:24:35;100227.22;;;13.52;100.00
22605;BME280;11469;49.024;8.246;2023-05-07T02:27:00;100228.22;;;13.70;100.00
22605;BME280;11469;49.024;8.246;2023-05-07T02:29:26;100233.75;;;13.59;100.00
22605;BME280;11469;49.024;8.246;2023-05-07T02:31:51;100233.81;;;13.67;100.00
22605;BME280;11469;49.024;8.246;2023-05-07T02:34:18;100233.75;;;13.59;100.00
22605;BME280;11469;49.024;8.246;2023-05-07T02:36:43;100225.22;;;13.52;100.00
22605;BME280;11469;49.024;8.246;2023-05-07T02:39:09;100224.75;;;13.47;100.00
22605;BME280;11469;49.024;8.246;2023-05-07T02:41:34;100227.78;;;13.31;100.00
22605;BME280;11469;49.024;8.246;2023-05-07T02:44:00;100225.09;;;13.42;100.00
22605;BME280;11469;49.024;8.246;2023-05-07T02:46:25;100219.56;;;13.49;100.00
22605;BME280;11469;49.024;8.246;2023-05-07T02:48:50;100219.13;;;13.47;100.00
22605;BME280;11469;49.024;8.246;2023-05-07T02:51:20;100213.03;;;13.41;100.00
22605;BME280;11469;49.024;8.246;2023-05-07T02:53:45;100206.63;;;13.44;100.00
22605;BME280;11469;49.024;8.246;2023-05-07T02:56:11;100206.19;;;13.42;100.00
22605;BME280;11469;49.024;8.246;2023-05-07T02:58:36;100208.59;;;13.40;100.00
22605;BME280;11469;49.024;8.246;2023-05-07T03:01:04;100209.72;;;13.32;100.00
22605;BME280;11469;49.024;8.246;2023-05-07T03:03:30;100213.38;;;13.36;100.00
22605;BME280;11469;49.024;8.246;2023-05-07T03:05:55;100206.03;;;13.28;100.00
22605;BME280;11469;49.024;8.246;2023-05-07T03:08:21;100213.63;;;13.24;100.00
22605;BME280;11469;49.024;8.246;2023-05-07T03:10:46;100213.00;;;13.38;100.00
22605;BME280;11469;49.024;8.246;2023-05-07T03:13:12;100214.56;;;13.35;100.00
22605;BME280;11469;49.024;8.246;2023-05-07T03:15:37;100203.22;;;13.28;100.00
22605;BME280;11469;49.024;8.246;2023-05-07T03:18:03;100194.44;;;13.33;100.00
22605;BME280;11469;49.024;8.246;2023-05-07T03:20:28;100193.19;;;13.31;100.00
22605;BME280;11469;49.024;8.246;2023-05-07T03:22:53;100202.03;;;13.29;100.00
22605;BME280;11469;49.024;8.246;2023-05-07T03:25:19;100194.06;;;13.35;100.00
22605;BME280;11469;49.024;8.246;2023-05-07T03:27:44;100206.13;;;13.35;100.00
22605;BME280;11469;49.024;8.246;2023-05-07T03:30:10;100203.22;;;13.28;100.00
22605;BME280;11469;49.024;8.246;2023-05-07T03:32:36;100193.63;;;13.33;100.00
22605;BME280;11469;49.024;8.246;2023-05-07T03:35:01;100197.59;;;13.28;100.00
22605;BME280;11469;49.024;8.246;2023-05-07T03:37:27;100198.44;;;13.32;100.00
22605;BME280;11469;49.024;8.246;2023-05-07T03:39:53;100206.81;;;13.25;100.00
22605;BME280;11469;49.024;8.246;2023-05-07T03:42:18;100198.31;;;13.18;100.00
22605;BME280;11469;49.024;8.246;2023-05-07T03:44:43;100199.75;;;13.08;100.00
22605;BME280;11469;49.024;8.246;2023-05-07T03:47:09;100212.50;;;12.99;100.00
22605;BME280;11469;49.024;8.246;2023-05-07T03:49:35;100206.53;;;13.04;100.00
22605;BME280;11469;49.024;8.246;2023-05-07T03:52:01;100207.69;;;12.99;100.00
22605;BME280;11469;49.024;8.246;2023-05-07T03:54:26;100214.94;;;13.00;100.00
22605;BME280;11469;49.024;8.246;2023-05-07T03:56:51;100221.03;;;13.06;100.00
22605;BME280;11469;49.024;8.246;2023-05-07T03:59:17;100220.19;;;13.02;100.00
22605;BME280;11469;49.024;8.246;2023-05-07T04:01:42;100221.28;;;12.93;100.00
22605;BME280;11469;49.024;8.246;2023-05-07T04:04:07;100228.09;;;12.92;100.00
22605;BME280;11469;49.024;8.246;2023-05-07T04:06:33;100232.09;;;12.91;100.00
22605;BME280;11469;49.024;8.246;2023-05-07T04:08:58;100227.94;;;12.82;100.00
22605;BME280;11469;49.024;8.246;2023-05-07T04:11:24;100234.75;;;12.81;100.00
22605;BME280;11469;49.024;8.246;2023-05-07T04:13:50;100223.06;;;12.79;100.00
22605;BME280;11469;49.024;8.246;2023-05-07T04:16:15;100233.13;;;12.80;100.00
22605;BME280;11469;49.024;8.246;2023-05-07T04:18:41;100228.28;;;12.77;100.00
22605;BME280;11469;49.024;8.246;2023-05-07T04:21:16;100219.00;;;12.73;100.00
22605;BME280;11469;49.024;8.246;2023-05-07T04:23:42;100223.72;;;12.65;100.00
22605;BME280;11469;49.024;8.246;2023-05-07T04:26:07;100224.84;;;12.60;100.00
22605;BME280;11469;49.024;8.246;2023-05-07T04:28:34;100232.03;;;12.58;100.00
22605;BME280;11469;49.024;8.246;2023-05-07T04:30:59;100234.19;;;12.68;100.00
22605;BME280;11469;49.024;8.246;2023-05-07T04:33:24;100236.16;;;12.94;100.00
22605;BME280;11469;49.024;8.246;2023-05-07T04:35:50;100226.56;;;12.99;100.00
22605;BME280;11469;49.024;8.246;2023-05-07T04:38:15;100242.63;;;12.98;100.00
22605;BME280;11469;49.024;8.246;2023-05-07T04:40:41;100245.06;;;13.00;100.00
22605;BME280;11469;49.024;8.246;2023-05-07T04:43:07;100243.53;;;13.06;100.00
22605;BME280;11469;49.024;8.246;2023-05-07T04:45:34;100239.72;;;13.17;100.00
22605;BME280;11469;49.024;8.246;2023-05-07T04:48:00;100235.19;;;13.13;100.00
22605;BME280;11469;49.024;8.246;2023-05-07T04:50:25;100237.84;;;13.32;100.00
22605;BME280;11469;49.024;8.246;2023-05-07T04:52:51;100245.09;;;13.33;100.00
22605;BME280;11469;49.024;8.246;2023-05-07T04:55:18;100245.09;;;13.33;100.00
22605;BME280;11469;49.024;8.246;2023-05-07T04:57:43;100247.56;;;13.38;100.00
22605;BME280;11469;49.024;8.246;2023-05-07T05:00:09;100249.19;;;13.39;100.00
22605;BME280;11469;49.024;8.246;2023-05-07T05:02:35;100247.69;;;13.49;100.00
22605;BME280;11469;49.024;8.246;2023-05-07T05:05:01;100256.63;;;13.54;100.00
22605;BME280;11469;49.024;8.246;2023-05-07T05:07:29;100265.50;;;13.56;100.00
22605;BME280;11469;49.024;8.246;2023-05-07T05:09:54;100255.06;;;13.60;100.00
22605;BME280;11469;49.024;8.246;2023-05-07T05:12:20;100255.94;;;13.65;100.00
22605;BME280;11469;49.024;8.246;2023-05-07T05:14:46;100263.19;;;13.66;100.00
22605;BME280;11469;49.024;8.246;2023-05-07T05:17:12;100261.59;;;13.68;100.00
22605;BME280;11469;49.024;8.246;2023-05-07T05:19:37;100265.31;;;13.79;100.00
22605;BME280;11469;49.024;8.246;2023-05-07T05:22:03;100264.94;;;13.81;100.00
22605;BME280;11469;49.024;8.246;2023-05-07T05:24:30;100273.91;;;13.93;100.00
22605;BME280;11469;49.024;8.246;2023-05-07T05:26:55;100268.75;;;13.99;100.00
22605;BME280;11469;49.024;8.246;2023-05-07T05:29:21;100270.97;;;14.27;100.00
22605;BME280;11469;49.024;8.246;2023-05-07T05:31:46;100276.06;;;14.51;100.00
22605;BME280;11469;49.024;8.246;2023-05-07T05:34:12;100283.38;;;14.59;100.00
22605;BME280;11469;49.024;8.246;2023-05-07T05:36:37;100285.81;;;14.61;100.00
22605;BME280;11469;49.024;8.246;2023-05-07T05:39:03;100285.88;;;14.75;99.85
22605;BME280;11469;49.024;8.246;2023-05-07T05:41:29;100276.22;;;14.76;99.20
22605;BME280;11469;49.024;8.246;2023-05-07T05:43:54;100274.59;;;14.75;99.55
22605;BME280;11469;49.024;8.246;2023-05-07T05:46:20;100275.00;;;14.77;99.52
22605;BME280;11469;49.024;8.246;2023-05-07T05:48:45;100283.56;;;14.91;99.38
22605;BME280;11469;49.024;8.246;2023-05-07T05:51:11;100275.84;;;14.81;99.48
22605;BME280;11469;49.024;8.246;2023-05-07T05:53:36;100285.53;;;14.84;98.91
22605;BME280;11469;49.024;8.246;2023-05-07T05:56:02;100278.69;;;14.85;99.27
22605;BME280;11469;49.024;8.246;2023-05-07T05:58:28;100279.09;;;14.87;99.72
22605;BME280;11469;49.024;8.246;2023-05-07T06:00:53;100281.56;;;14.92;99.47
22605;BME280;11469;49.024;8.246;2023-05-07T06:03:19;100273.53;;;14.98;98.21
22605;BME280;11469;49.024;8.246;2023-05-07T06:05:45;100273.16;;;15.03;99.27
22605;BME280;11469;49.024;8.246;2023-05-07T06:08:10;100274.81;;;15.11;98.65
22605;BME280;11469;49.024;8.246;2023-05-07T06:10:37;100278.88;;;15.20;97.85
22605;BME280;11469;49.024;8.246;2023-05-07T06:13:02;100278.94;;;15.38;96.63
22605;BME280;11469;49.024;8.246;2023-05-07T06:15:28;100273.72;;;15.40;96.06
22605;BME280;11469;49.024;8.246;2023-05-07T06:17:53;100267.69;;;15.45;95.46
22605;BME280;11469;49.024;8.246;2023-05-07T06:20:21;100266.91;;;15.52;95.96
22605;BME280;11469;49.024;8.246;2023-05-07T06:22:46;100277.84;;;15.68;95.51
22605;BME280;11469;49.024;8.246;2023-05-07T06:25:12;100270.59;;;15.70;94.79
22605;BME280;11469;49.024;8.246;2023-05-07T06:27:37;100262.13;;;15.59;95.29
22605;BME280;11469;49.024;8.246;2023-05-07T06:30:05;100266.97;;;15.59;94.70
22605;BME280;11469;49.024;8.246;2023-05-07T06:32:31;100274.66;;;15.73;93.21
22605;BME280;11469;49.024;8.246;2023-05-07T06:34:56;100278.28;;;15.77;91.89
22605;BME280;11469;49.024;8.246;2023-05-07T06:37:22;100279.16;;;15.95;91.25
22605;BME280;11469;49.024;8.246;2023-05-07T06:39:48;100283.97;;;15.91;91.07
22605;BME280;11469;49.024;8.246;2023-05-07T06:42:13;100296.91;;;15.92;89.75
22605;BME280;11469;49.024;8.246;2023-05-07T06:44:39;100303.38;;;16.00;90.03
22605;BME280;11469;49.024;8.246;2023-05-07T06:47:04;100300.56;;;16.10;88.58
22605;BME280;11469;49.024;8.246;2023-05-07T06:49:30;100296.53;;;16.25;87.93
22605;BME280;11469;49.024;8.246;2023-05-07T06:51:56;100298.97;;;16.45;86.98
22605;BME280;11469;49.024;8.246;2023-05-07T06:54:22;100296.13;;;16.55;86.64
22605;BME280;11469;49.024;8.246;2023-05-07T06:56:48;100300.97;;;16.90;85.58
22605;BME280;11469;49.024;8.246;2023-05-07T06:59:14;100302.13;;;17.14;83.72
22605;BME280;11469;49.024;8.246;2023-05-07T07:01:39;100292.75;;;17.35;81.85
22605;BME280;11469;49.024;8.246;2023-05-07T07:04:05;100291.81;;;17.67;80.75
22605;BME280;11469;49.024;8.246;2023-05-07T07:06:31;100287.69;;;17.82;79.80
22605;BME280;11469;49.024;8.246;2023-05-07T07:08:57;100287.72;;;17.78;80.15
22605;BME280;11469;49.024;8.246;2023-05-07T07:11:23;100284.53;;;17.66;79.60
22605;BME280;11469;49.024;8.246;2023-05-07T07:13:48;100290.56;;;17.75;80.91
22605;BME280;11469;49.024;8.246;2023-05-07T07:16:13;100295.84;;;17.69;78.66
22605;BME280;11469;49.024;8.246;2023-05-07T07:18:39;100299.91;;;17.61;77.82
22605;BME280;11469;49.024;8.246;2023-05-07T07:21:05;100306.28;;;17.90;78.43
22605;BME280;11469;49.024;8.246;2023-05-07T07:23:30;100321.81;;;18.30;76.81
22605;BME280;11469;49.024;8.246;2023-05-07T07:25:56;100328.16;;;18.45;75.90
22605;BME280;11469;49.024;8.246;2023-05-07T07:28:21;100335.75;;;18.66;74.88
22605;BME280;11469;49.024;8.246;2023-05-07T07:30:47;100350.25;;;18.75;74.93
22605;BME280;11469;49.024;8.246;2023-05-07T07:33:12;100336.63;;;18.52;73.66
22605;BME280;11469;49.024;8.246;2023-05-07T07:35:38;100323.75;;;18.40;74.88
22605;BME280;11469;49.024;8.246;2023-05-07T07:38:03;100319.75;;;18.34;75.21
22605;BME280;11469;49.024;8.246;2023-05-07T07:40:28;100307.53;;;18.41;74.60
22605;BME280;11469;49.024;8.246;2023-05-07T07:42:54;100307.81;;;18.53;74.72
22605;BME280;11469;49.024;8.246;2023-05-07T07:45:20;100316.66;;;18.66;73.50
22605;BME280;11469;49.024;8.246;2023-05-07T07:47:45;100323.56;;;19.06;72.78
22605;BME280;11469;49.024;8.246;2023-05-07T07:50:11;100333.78;;;19.38;71.68
22605;BME280;11469;49.024;8.246;2023-05-07T07:52:36;100322.16;;;19.63;71.08
22605;BME280;11469;49.024;8.246;2023-05-07T07:55:02;100312.22;;;19.78;70.00
22605;BME280;11469;49.024;8.246;2023-05-07T07:57:27;100314.44;;;19.90;69.88
22605;BME280;11469;49.024;8.246;2023-05-07T07:59:53;100331.53;;;19.90;69.97
22605;BME280;11469;49.024;8.246;2023-05-07T08:02:18;100335.50;;;19.96;70.74
22605;BME280;11469;49.024;8.246;2023-05-07T08:04:44;100333.50;;;19.93;69.40
22605;BME280;11469;49.024;8.246;2023-05-07T08:07:10;100327.00;;;19.93;68.09
22605;BME280;11469;49.024;8.246;2023-05-07T08:09:37;100325.22;;;20.06;67.95
22605;BME280;11469;49.024;8.246;2023-05-07T08:12:03;100326.56;;;20.25;67.91
22605;BME280;11469;49.024;8.246;2023-05-07T08:14:29;100314.44;;;20.20;66.68
22605;BME280;11469;49.024;8.246;2023-05-07T08:16:55;100324.78;;;20.07;68.14
22605;BME280;11469;49.024;8.246;2023-05-07T08:19:20;100332.44;;;19.83;68.28
22605;BME280;11469;49.024;8.246;2023-05-07T08:21:47;100328.19;;;19.31;68.63
22605;BME280;11469;49.024;8.246;2023-05-07T08:24:16;100323.44;;;19.20;70.71
22605;BME280;11469;49.024;8.246;2023-05-07T08:26:41;100328.28;;;19.58;70.73
22605;BME280;11469;49.024;8.246;2023-05-07T08:29:07;100351.63;;;19.76;67.63
22605;BME280;11469;49.024;8.246;2023-05-07T08:31:33;100332.38;;;19.87;68.46
22605;BME280;11469;49.024;8.246;2023-05-07T08:33:59;100323.41;;;20.19;68.72
22605;BME280;11469;49.024;8.246;2023-05-07T08:36:25;100333.00;;;20.29;65.36
22605;BME280;11469;49.024;8.246;2023-05-07T08:38:51;100336.53;;;20.36;65.94
22605;BME280;11469;49.024;8.246;2023-05-07T08:41:16;100332.50;;;19.80;66.45
22605;BME280;11469;49.024;8.246;2023-05-07T08:43:46;100322.94;;;19.94;65.89
22605;BME280;11469;49.024;8.246;2023-05-07T08:46:24;100332.59;;;19.73;65.24
22605;BME280;11469;49.024;8.246;2023-05-07T08:48:51;100328.72;;;19.86;66.43
22605;BME280;11469;49.024;8.246;2023-05-07T08:51:18;100329.06;;;19.92;65.00
22605;BME280;11469;49.024;8.246;2023-05-07T08:53:45;100326.63;;;19.91;65.48
22605;BME280;11469;49.024;8.246;2023-05-07T08:56:11;100327.97;;;20.13;65.65
22605;BME280;11469;49.024;8.246;2023-05-07T08:58:37;100337.47;;;20.57;67.18
22605;BME280;11469;49.024;8.246;2023-05-07T09:01:07;100327.69;;;20.81;63.78
22605;BME280;11469;49.024;8.246;2023-05-07T09:03:33;100321.06;;;20.64;65.18
22605;BME280;11469;49.024;8.246;2023-05-07T09:05:58;100328.19;;;20.76;66.25
22605;BME280;11469;49.024;8.246;2023-05-07T09:08:25;100322.97;;;20.94;65.50
22605;BME280;11469;49.024;8.246;2023-05-07T09:10:52;100327.22;;;21.29;64.99
22605;BME280;11469;49.024;8.246;2023-05-07T09:13:17;100326.22;;;21.39;61.67
22605;BME280;11469;49.024;8.246;2023-05-07T09:15:43;100317.31;;;21.57;63.32
22605;BME280;11469;49.024;8.246;2023-05-07T09:18:09;100326.13;;;21.82;63.33
22605;BME280;11469;49.024;8.246;2023-05-07T09:20:36;100324.19;;;21.96;62.49
22605;BME280;11469;49.024;8.246;2023-05-07T09:23:02;100323.34;;;21.79;61.62
22605;BME280;11469;49.024;8.246;2023-05-07T09:25:31;100321.31;;;21.40;62.57
22605;BME280;11469;49.024;8.246;2023-05-07T09:27:59;100324.91;;;21.64;62.53
22605;BME280;11469;49.024;8.246;2023-05-07T09:30:31;100317.16;;;21.64;60.19
22605;BME280;11469;49.024;8.246;2023-05-07T09:32:58;100317.09;;;21.68;61.27
22605;BME280;11469;49.024;8.246;2023-05-07T09:35:24;100323.34;;;21.79;60.93
22605;BME280;11469;49.024;8.246;2023-05-07T09:37:56;100312.81;;;21.76;61.15
22605;BME280;11469;49.024;8.246;2023-05-07T09:40:27;100313.22;;;21.94;60.41
22605;BME280;11469;49.024;8.246;2023-05-07T09:42:53;100306.78;;;22.10;60.47
22605;BME280;11469;49.024;8.246;2023-05-07T09:45:25;100305.56;;;22.27;58.75
22605;BME280;11469;49.024;8.246;2023-05-07T09:47:54;100304.94;;;22.20;57.88
22605;BME280;11469;49.024;8.246;2023-05-07T09:50:22;100309.63;;;21.54;58.66
22605;BME280;11469;49.024;8.246;2023-05-07T09:52:51;100303.69;;;21.65;59.43
22605;BME280;11469;49.024;8.246;2023-05-07T09:55:17;100308.13;;;21.85;60.38
22605;BME280;11469;49.024;8.246;2023-05-07T09:57:44;100299.47;;;22.09;59.04
22605;BME280;11469;49.024;8.246;2023-05-07T10:00:10;100299.47;;;22.25;57.03
22605;BME280;11469;49.024;8.246;2023-05-07T10:02:39;100304.41;;;22.41;57.72
22605;BME280;11469;49.024;8.246;2023-05-07T10:05:12;100305.22;;;22.58;57.91
22605;BME280;11469;49.024;8.246;2023-05-07T10:07:38;100305.84;;;22.49;56.49
22605;BME280;11469;49.024;8.246;2023-05-07T10:10:04;100306.22;;;22.67;58.40
22605;BME280;11469;49.024;8.246;2023-05-07T10:12:31;100293.09;;;22.54;56.18
22605;BME280;11469;49.024;8.246;2023-05-07T10:15:03;100298.50;;;22.32;57.61
22605;BME280;11469;49.024;8.246;2023-05-07T10:17:29;100288.88;;;22.09;57.31
22605;BME280;11469;49.024;8.246;2023-05-07T10:19:55;100299.13;;;22.23;57.49
22605;BME280;11469;49.024;8.246;2023-05-07T10:22:21;100295.47;;;22.06;58.48
22605;BME280;11469;49.024;8.246;2023-05-07T10:24:48;100285.66;;;22.07;57.80
22605;BME280;11469;49.024;8.246;2023-05-07T10:27:16;100287.09;;;22.32;58.46
22605;BME280;11469;49.024;8.246;2023-05-07T10:29:58;100286.09;;;22.71;59.40
22605;BME280;11469;49.024;8.246;2023-05-07T10:35:01;100284.84;;;23.04;56.92
22605;BME280;11469;49.024;8.246;2023-05-07T10:37:28;100285.56;;;23.08;57.37
22605;BME280;11469;49.024;8.246;2023-05-07T10:39:54;100280.66;;;23.22;56.87
22605;BME280;11469;49.024;8.246;2023-05-07T10:42:19;100284.72;;;23.37;55.86
22605;BME280;11469;49.024;8.246;2023-05-07T10:44:45;100287.28;;;23.47;55.59
22605;BME280;11469;49.024;8.246;2023-05-07T10:47:14;100285.59;;;23.50;53.67
22605;BME280;11469;49.024;8.246;2023-05-07T10:52:16;100285.53;;;23.37;54.43
22605;BME280;11469;49.024;8.246;2023-05-07T10:54:42;100285.47;;;23.25;54.14
22605;BME280;11469;49.024;8.246;2023-05-07T10:59:56;100276.28;;;22.72;55.69
22605;BME280;11469;49.024;8.246;2023-05-07T11:02:21;100270.91;;;22.74;56.74
22605;BME280;11469;49.024;8.246;2023-05-07T11:05:22;100272.41;;;23.11;55.80
22605;BME280;11469;49.024;8.246;2023-05-07T11:08:01;100277.31;;;23.39;54.42
22605;BME280;11469;49.024;8.246;2023-05-07T11:10:59;100265.91;;;23.52;55.07
22605;BME280;11469;49.024;8.246;2023-05-07T11:13:44;100263.31;;;23.58;54.88
22605;BME280;11469;49.024;8.246;2023-05-07T11:16:17;100265.28;;;23.61;53.81
22605;BME280;11469;49.024;8.246;2023-05-07T11:18:54;100260.75;;;23.47;54.41
22605;BME280;11469;49.024;8.246;2023-05-07T11:24:02;100262.59;;;24.33;53.20
22605;BME280;11469;49.024;8.246;2023-05-07T11:26:30;100263.34;;;24.21;52.10
22605;BME280;11469;49.024;8.246;2023-05-07T11:28:56;100257.97;;;24.48;52.80
22605;BME280;11469;49.024;8.246;2023-05-07T11:31:24;100251.56;;;24.92;51.71
22605;BME280;11469;49.024;8.246;2023-05-07T11:33:51;100258.69;;;25.22;50.31
22605;BME280;11469;49.024;8.246;2023-05-07T11:36:18;100258.56;;;25.25;49.88
22605;BME280;11469;49.024;8.246;2023-05-07T11:38:43;100260.44;;;25.41;50.06
22605;BME280;11469;49.024;8.246;2023-05-07T11:41:08;100265.38;;;25.40;49.58
22605;BME280;11469;49.024;8.246;2023-05-07T11:43:34;100256.66;;;25.53;48.91
22605;BME280;11469;49.024;8.246;2023-05-07T11:46:10;100261.94;;;25.76;49.32
22605;BME280;11469;49.024;8.246;2023-05-07T11:48:36;100253.47;;;25.73;47.21
22605;BME280;11469;49.024;8.246;2023-05-07T11:51:03;100248.44;;;25.86;47.74
22605;BME280;11469;49.024;8.246;2023-05-07T11:53:40;100256.06;;;25.58;47.64
22605;BME280;11469;49.024;8.246;2023-05-07T11:56:09;100248.25;;;25.59;48.51
22605;BME280;11469;49.024;8.246;2023-05-07T11:58:35;100251.41;;;25.52;48.61
22605;BME280;11469;49.024;8.246;2023-05-07T12:01:01;100250.34;;;25.36;48.81
22605;BME280;11469;49.024;8.246;2023-05-07T12:03:27;100248.22;;;25.71;48.90
22605;BME280;11469;49.024;8.246;2023-05-07T12:05:52;100242.97;;;25.57;49.06
22605;BME280;11469;49.024;8.246;2023-05-07T12:08:19;100249.03;;;25.50;47.62
22605;BME280;11469;49.024;8.246;2023-05-07T12:10:46;100247.28;;;25.31;48.36
22605;BME280;11469;49.024;8.246;2023-05-07T12:13:20;100240.09;;;25.04;48.75
22605;BME280;11469;49.024;8.246;2023-05-07T12:15:46;100238.19;;;24.76;49.18
22605;BME280;11469;49.024;8.246;2023-05-07T12:18:12;100237.97;;;24.70;49.60
22605;BME280;11469;49.024;8.246;2023-05-07T12:20:39;100245.59;;;24.99;49.44
22605;BME280;11469;49.024;8.246;2023-05-07T12:23:05;100249.34;;;25.30;48.63
22605;BME280;11469;49.024;8.246;2023-05-07T12:25:38;100252.72;;;25.60;49.00
22605;BME280;11469;49.024;8.246;2023-05-07T12:28:05;100241.09;;;25.63;48.07
22605;BME280;11469;49.024;8.246;2023-05-07T12:30:38;100242.06;;;25.82;48.54
22605;BME280;11469;49.024;8.246;2023-05-07T12:33:03;100237.03;;;25.95;47.32
22605;BME280;11469;49.024;8.246;2023-05-07T12:35:36;100234.56;;;25.85;47.91
22605;BME280;11469;49.024;8.246;2023-05-07T12:38:02;100234.72;;;25.81;48.56
22605;BME280;11469;49.024;8.246;2023-05-07T12:40:43;100233.91;;;25.81;48.87
22605;BME280;11469;49.024;8.246;2023-05-07T12:43:21;100239.31;;;25.78;49.35
22605;BME280;11469;49.024;8.246;2023-05-07T12:45:49;100242.72;;;25.86;49.86
22605;BME280;11469;49.024;8.246;2023-05-07T12:48:15;100240.22;;;25.97;49.47
22605;BME280;11469;49.024;8.246;2023-05-07T12:50:40;100236.22;;;26.04;49.48
22605;BME280;11469;49.024;8.246;2023-05-07T12:53:07;100240.97;;;25.89;49.99